createdAt,value
2018-08-10T00:01:18.129Z,99.90
2018-08-10T00:03:46.562Z,99.90
2018-08-10T00:06:15.028Z,99.90
2018-08-10T00:08:43.454Z,99.90
2018-08-10T00:11:12.006Z,99.90
2018-08-10T00:13:40.511Z,99.90
2018-08-10T00:16:09.104Z,99.90
2018-08-10T00:18:37.622Z,99.90
2018-08-10T00:21:06.105Z,99.90
2018-08-10T00:23:34.581Z,99.90
2018-08-10T00:26:03.105Z,99.90
2018-08-10T00:28:31.612Z,99.90
2018-08-10T00:31:04.395Z,99.90
2018-08-10T00:33:32.910Z,99.90
2018-08-10T00:36:01.350Z,99.90
2018-08-10T00:38:29.742Z,99.90
2018-08-10T00:40:58.216Z,99.90
2018-08-10T00:43:26.786Z,99.90
2018-08-10T00:45:55.324Z,99.90
2018-08-10T00:48:23.889Z,99.90
2018-08-10T00:50:52.335Z,99.90
2018-08-10T00:53:20.739Z,99.90
2018-08-10T00:55:49.330Z,99.90
2018-08-10T00:58:17.782Z,99.90
2018-08-10T01:00:46.241Z,99.90
2018-08-10T01:03:14.720Z,99.90
2018-08-10T01:05:43.167Z,99.90
2018-08-10T01:08:11.587Z,99.90
2018-08-10T01:10:40.046Z,99.90
2018-08-10T01:13:08.596Z,99.90
2018-08-10T01:15:37.042Z,99.90
2018-08-10T01:18:05.611Z,99.90
2018-08-10T01:20:34.081Z,99.90
2018-08-10T01:23:07.401Z,99.90
2018-08-10T01:25:35.867Z,99.90
2018-08-10T01:28:05.111Z,99.90
2018-08-10T01:30:34.516Z,99.90
2018-08-10T01:33:03.268Z,99.90
2018-08-10T01:35:32.136Z,99.90
2018-08-10T01:38:01.775Z,99.90
2018-08-10T01:40:30.229Z,99.90
2018-08-10T01:42:58.736Z,99.90
2018-08-10T01:45:27.226Z,99.90
2018-08-10T01:47:55.674Z,99.90
2018-08-10T01:50:24.117Z,99.90
2018-08-10T01:52:52.586Z,99.90
2018-08-10T01:55:21.103Z,99.90
2018-08-10T01:57:49.544Z,99.90
2018-08-10T02:00:17.987Z,99.90
2018-08-10T02:02:46.470Z,99.90
2018-08-10T02:05:15.703Z,99.90
2018-08-10T02:07:44.441Z,99.90
2018-08-10T02:10:16.468Z,99.90
2018-08-10T02:12:45.827Z,99.90
2018-08-10T03:31:58.820Z,99.90
2018-08-10T03:34:27.210Z,99.90
2018-08-10T03:36:55.641Z,99.90
2018-08-10T03:39:24.112Z,99.90
2018-08-10T03:41:52.569Z,99.90
2018-08-10T03:44:21.090Z,99.90
2018-08-10T03:46:49.542Z,99.90
2018-08-10T03:49:18.026Z,99.90
2018-08-10T03:51:46.514Z,99.90
2018-08-10T03:54:15.091Z,99.90
2018-08-10T03:56:43.630Z,99.90
2018-08-10T03:59:12.053Z,99.90
2018-08-10T04:01:40.445Z,99.90
2018-08-10T04:04:08.874Z,99.90
2018-08-10T04:06:37.284Z,99.90
2018-08-10T04:09:07.936Z,99.90
2018-08-10T04:11:36.389Z,99.90
2018-08-10T04:14:04.896Z,99.90
2018-08-10T04:16:33.449Z,99.90
2018-08-10T04:19:01.943Z,99.90
2018-08-10T04:21:30.457Z,99.90
2018-08-10T04:23:58.895Z,99.90
2018-08-10T04:26:27.384Z,99.90
2018-08-10T04:28:55.860Z,99.90
2018-08-10T04:31:24.374Z,99.90
2018-08-10T04:33:52.888Z,99.90
2018-08-10T04:36:21.468Z,99.90
2018-08-10T04:38:49.914Z,99.90
2018-08-10T04:41:18.465Z,99.90
2018-08-10T04:43:46.958Z,99.90
2018-08-10T04:46:15.411Z,99.90
2018-08-10T04:48:43.773Z,99.90
2018-08-10T04:51:12.371Z,99.90
2018-08-10T04:53:40.904Z,99.90
2018-08-10T04:56:09.357Z,99.90
2018-08-10T04:58:37.844Z,99.90
2018-08-10T05:01:06.358Z,99.90
2018-08-10T05:03:34.810Z,99.90
2018-08-10T05:06:03.230Z,99.90
2018-08-10T05:08:31.689Z,99.90
2018-08-10T05:11:00.130Z,99.90
2018-08-10T05:13:30.393Z,99.90
2018-08-10T05:16:16.201Z,99.90
2018-08-10T05:18:44.596Z,99.90
2018-08-10T05:21:13.101Z,99.90
2018-08-10T05:23:41.594Z,99.90
2018-08-10T05:26:10.033Z,99.90
2018-08-10T05:28:38.524Z,99.90
2018-08-10T05:31:06.935Z,99.90
2018-08-10T05:33:35.371Z,99.90
2018-08-10T05:36:03.760Z,99.90
2018-08-10T05:38:32.264Z,99.90
2018-08-10T05:41:00.678Z,99.90
2018-08-10T05:43:29.112Z,99.90
2018-08-10T05:45:57.545Z,99.90
2018-08-10T05:48:26.078Z,99.90
2018-08-10T05:50:54.508Z,99.90
2018-08-10T05:53:23.063Z,99.90
2018-08-10T05:55:51.435Z,99.90
2018-08-10T05:58:19.934Z,99.90
2018-08-10T06:00:48.447Z,99.90
2018-08-10T06:03:16.834Z,99.90
2018-08-10T06:05:45.295Z,99.90
2018-08-10T06:08:13.684Z,99.90
2018-08-10T06:10:42.137Z,99.90
2018-08-10T06:13:10.588Z,99.90
2018-08-10T06:15:38.927Z,99.90
2018-08-10T06:18:07.354Z,99.90
2018-08-10T06:20:35.883Z,99.90
2018-08-10T06:23:04.281Z,99.90
2018-08-10T06:25:32.787Z,99.90
2018-08-10T06:28:01.148Z,99.90
2018-08-10T06:30:29.629Z,99.90
2018-08-10T06:32:58.049Z,99.90
2018-08-10T06:35:26.582Z,99.90
2018-08-10T06:37:55.054Z,99.90
2018-08-10T06:40:23.533Z,99.90
2018-08-10T06:42:52.001Z,99.90
2018-08-10T06:45:20.462Z,99.90
2018-08-10T06:47:48.854Z,99.90
2018-08-10T06:50:17.358Z,99.90
2018-08-10T06:52:45.766Z,99.90
2018-08-10T06:55:14.290Z,99.90
2018-08-10T06:57:42.765Z,99.90
2018-08-10T07:00:11.242Z,99.90
2018-08-10T07:02:39.769Z,99.90
2018-08-10T07:05:08.840Z,99.90
2018-08-10T07:07:37.819Z,99.90
2018-08-10T07:10:07.164Z,99.90
2018-08-10T07:12:35.620Z,99.90
2018-08-10T07:15:04.330Z,99.90
2018-08-10T07:17:32.793Z,99.90
2018-08-10T07:20:01.259Z,99.90
2018-08-10T07:22:29.673Z,99.90
2018-08-10T07:24:58.098Z,99.90
2018-08-10T07:27:26.611Z,99.90
2018-08-10T07:29:55.039Z,99.90
2018-08-10T07:32:23.517Z,99.90
2018-08-10T07:34:51.925Z,99.90
2018-08-10T07:37:20.329Z,99.90
2018-08-10T07:39:48.768Z,99.90
2018-08-10T07:42:17.212Z,99.90
2018-08-10T07:44:45.617Z,99.90
2018-08-10T07:47:14.006Z,99.90
2018-08-10T07:49:42.514Z,99.90
2018-08-10T07:52:10.979Z,99.90
2018-08-10T07:54:39.511Z,99.90
2018-08-10T07:57:08.040Z,99.90
2018-08-10T07:59:36.607Z,99.90
2018-08-10T08:02:05.151Z,99.90
2018-08-10T08:04:33.594Z,99.90
2018-08-10T08:07:02.197Z,99.90
2018-08-10T08:09:30.597Z,99.90
2018-08-10T08:11:59.179Z,99.90
2018-08-10T08:14:27.652Z,99.90
2018-08-10T08:16:56.113Z,99.90
2018-08-10T08:19:24.661Z,99.90
2018-08-10T08:22:15.950Z,99.90
2018-08-10T08:24:44.500Z,99.90
2018-08-10T08:27:14.236Z,99.90
2018-08-10T08:29:42.760Z,99.90
2018-08-10T08:32:11.463Z,99.90
2018-08-10T08:34:40.786Z,99.90
2018-08-10T08:37:09.754Z,99.90
2018-08-10T08:40:43.801Z,99.90
2018-08-10T08:43:12.449Z,99.90
2018-08-10T08:45:48.567Z,99.90
2018-08-10T08:48:16.948Z,99.90
2018-08-10T08:50:48.116Z,99.90
2018-08-10T08:53:16.678Z,99.90
2018-08-10T08:55:49.051Z,99.90
2018-08-10T08:58:17.569Z,99.90
2018-08-10T09:00:46.042Z,99.90
2018-08-10T09:03:26.383Z,99.90
2018-08-10T09:05:55.666Z,99.90
2018-08-10T09:08:24.240Z,99.90
2018-08-10T09:10:53.963Z,99.90
2018-08-10T09:13:22.623Z,99.90
2018-08-10T09:15:51.122Z,99.90
2018-08-10T09:18:19.711Z,99.90
2018-08-10T09:20:48.318Z,99.90
2018-08-10T09:23:16.842Z,99.90
2018-08-10T09:25:45.391Z,99.90
2018-08-10T09:28:13.878Z,99.90
2018-08-10T09:30:43.232Z,99.90
2018-08-10T09:33:11.641Z,99.90
2018-08-10T09:35:40.188Z,99.90
2018-08-10T09:38:08.713Z,99.90
2018-08-10T09:40:37.214Z,99.90
2018-08-10T09:43:05.718Z,99.90
2018-08-10T09:45:34.567Z,99.90
2018-08-10T09:48:03.144Z,99.90
2018-08-10T09:50:31.589Z,99.90
2018-08-10T09:53:01.614Z,99.90
2018-08-10T09:55:32.861Z,99.90
2018-08-10T09:58:05.742Z,99.90
2018-08-10T10:00:39.465Z,99.90
2018-08-10T10:03:14.028Z,99.90
2018-08-10T10:05:42.760Z,99.90
2018-08-10T10:08:11.265Z,99.90
2018-08-10T10:10:39.720Z,99.90
2018-08-10T10:13:08.236Z,99.90
2018-08-10T10:15:36.750Z,99.90
2018-08-10T10:18:06.955Z,99.90
2018-08-10T10:20:35.475Z,99.90
2018-08-10T10:23:03.873Z,99.90
2018-08-10T10:25:32.348Z,99.90
2018-08-10T10:28:00.809Z,99.90
2018-08-10T10:30:29.228Z,99.90
2018-08-10T10:32:57.681Z,99.90
2018-08-10T10:35:26.105Z,99.90
2018-08-10T10:37:54.786Z,99.90
2018-08-10T10:40:23.288Z,99.90
2018-08-10T10:42:51.808Z,99.90
2018-08-10T10:45:20.218Z,99.90
2018-08-10T10:47:48.879Z,99.90
2018-08-10T10:50:18.223Z,99.90
2018-08-10T10:52:46.743Z,99.90
2018-08-10T10:55:15.412Z,99.90
2018-08-10T10:57:44.206Z,99.90
2018-08-10T11:00:15.455Z,99.90
2018-08-10T11:02:44.244Z,99.90
2018-08-10T11:05:12.749Z,99.90
2018-08-10T11:07:41.246Z,99.50
2018-08-10T11:10:11.347Z,99.80
2018-08-10T11:12:39.926Z,98.90
2018-08-10T11:15:09.745Z,97.40
2018-08-10T11:17:38.178Z,97.30
2018-08-10T11:20:08.124Z,96.30
2018-08-10T11:22:36.943Z,95.50
2018-08-10T11:25:06.403Z,95.70
2018-08-10T11:27:34.787Z,93.70
2018-08-10T11:30:03.292Z,92.90
2018-08-10T11:32:31.748Z,93.50
2018-08-10T11:35:00.285Z,93.70
2018-08-10T11:37:28.771Z,91.70
2018-08-10T11:39:57.255Z,90.70
2018-08-10T11:42:25.650Z,91.80
2018-08-10T11:44:54.077Z,87.00
2018-08-10T11:47:22.475Z,85.30
2018-08-10T11:49:50.987Z,90.70
2018-08-10T11:52:19.484Z,90.60
2018-08-10T11:54:48.221Z,87.30
2018-08-10T11:57:16.758Z,87.50
2018-08-10T11:59:45.144Z,85.30
2018-08-10T12:02:13.597Z,86.70
2018-08-10T12:04:42.033Z,85.40
2018-08-10T12:07:10.447Z,84.00
2018-08-10T12:09:38.914Z,82.40
2018-08-10T12:12:07.361Z,81.90
2018-08-10T12:14:35.784Z,82.10
2018-08-10T12:17:04.469Z,77.50
2018-08-10T12:19:32.935Z,77.20
2018-08-10T12:22:01.399Z,77.10
2018-08-10T12:24:29.826Z,79.20
2018-08-10T12:26:58.480Z,76.20
2018-08-10T12:29:26.940Z,79.90
2018-08-10T12:31:55.438Z,75.80
2018-08-10T12:34:23.893Z,73.70
2018-08-10T12:36:52.370Z,78.50
2018-08-10T12:39:20.874Z,74.40
2018-08-10T12:41:49.329Z,72.60
2018-08-10T12:44:17.841Z,74.90
2018-08-10T12:46:46.272Z,69.90
2018-08-10T12:49:14.697Z,69.60
2018-08-10T12:51:43.138Z,76.80
2018-08-10T12:54:11.688Z,72.30
2018-08-10T12:56:40.213Z,70.80
2018-08-10T12:59:08.734Z,74.10
2018-08-10T13:01:37.148Z,68.20
2018-08-10T13:04:05.810Z,72.60
2018-08-10T13:06:34.308Z,67.20
2018-08-10T13:09:02.816Z,66.10
2018-08-10T13:11:31.240Z,66.80
2018-08-10T13:13:59.788Z,64.70
2018-08-10T13:16:28.211Z,66.80
2018-08-10T13:18:56.841Z,65.90
2018-08-10T13:21:25.269Z,67.00
2018-08-10T13:23:53.730Z,63.70
2018-08-10T13:26:22.202Z,60.10
2018-08-10T13:28:50.679Z,63.20
2018-08-10T13:31:19.265Z,62.10
2018-08-10T13:33:47.648Z,62.90
2018-08-10T13:36:16.141Z,62.30
2018-08-10T13:38:44.580Z,62.60
2018-08-10T13:41:13.092Z,62.70
2018-08-10T13:43:41.582Z,62.30
2018-08-10T13:46:10.009Z,62.20
2018-08-10T13:48:38.596Z,63.00
2018-08-10T13:51:07.073Z,61.50
2018-08-10T13:53:35.487Z,61.30
2018-08-10T13:56:04.105Z,62.20
2018-08-10T13:58:32.566Z,61.50
2018-08-10T14:01:01.149Z,64.90
2018-08-10T14:03:29.662Z,66.60
2018-08-10T14:05:58.197Z,64.10
2018-08-10T14:08:26.590Z,65.70
2018-08-10T14:10:55.092Z,64.60
2018-08-10T14:13:23.590Z,64.30
2018-08-10T14:15:52.031Z,65.90
2018-08-10T14:18:20.514Z,67.20
2018-08-10T14:20:48.955Z,67.30
2018-08-10T14:23:17.454Z,68.30
2018-08-10T14:25:45.969Z,64.40
2018-08-10T14:28:14.398Z,64.00
2018-08-10T14:30:43.055Z,65.70
2018-08-10T14:33:11.529Z,66.70
2018-08-10T14:35:40.183Z,66.10
2018-08-10T14:38:08.686Z,65.70
2018-08-10T14:40:37.313Z,65.30
2018-08-10T14:43:05.886Z,65.80
2018-08-10T14:45:34.424Z,66.40
2018-08-10T14:48:02.921Z,66.90
2018-08-10T14:50:31.509Z,65.50
2018-08-10T14:53:00.036Z,67.80
2018-08-10T14:55:28.577Z,66.50
2018-08-10T14:57:57.044Z,63.30
2018-08-10T15:00:25.800Z,65.60
2018-08-10T15:02:54.385Z,63.80
2018-08-10T15:05:22.948Z,61.80
2018-08-10T15:07:51.421Z,63.90
2018-08-10T15:10:20.029Z,63.30
2018-08-10T15:12:48.700Z,64.10
2018-08-10T15:15:18.323Z,60.80
2018-08-10T15:17:47.338Z,60.30
2018-08-10T15:20:17.419Z,62.00
2018-08-10T15:22:45.946Z,59.40
2018-08-10T15:25:14.473Z,59.00
2018-08-10T15:27:43.541Z,58.60
2018-08-10T15:30:14.974Z,60.40
2018-08-10T15:32:43.464Z,59.60
2018-08-10T15:35:13.939Z,60.80
2018-08-10T15:37:42.506Z,60.30
2018-08-10T15:40:13.024Z,60.80
2018-08-10T15:42:41.593Z,60.40
2018-08-10T15:45:11.996Z,61.80
2018-08-10T15:47:40.904Z,59.00
2018-08-10T15:50:10.209Z,59.90
2018-08-10T15:52:40.283Z,59.10
2018-08-10T15:55:09.430Z,59.90
2018-08-10T15:57:38.698Z,58.70
2018-08-10T16:00:24.251Z,58.30
2018-08-10T16:02:53.057Z,58.60
2018-08-10T16:05:21.624Z,58.90
2018-08-10T16:07:50.149Z,57.40
2018-08-10T16:10:18.700Z,59.00
2018-08-10T16:12:47.104Z,59.40
2018-08-10T16:15:17.041Z,59.80
2018-08-10T16:17:45.506Z,59.80
2018-08-10T16:20:16.861Z,59.50
2018-08-10T16:22:45.424Z,59.10
2018-08-10T16:25:14.000Z,59.00
2018-08-10T16:27:43.375Z,58.50
2018-08-10T16:30:13.612Z,58.40
2018-08-10T16:32:42.948Z,59.00
2018-08-10T16:35:12.472Z,61.10
2018-08-10T16:37:42.126Z,58.90
2018-08-10T16:40:11.880Z,59.30
2018-08-10T16:42:41.236Z,59.30
2018-08-10T16:45:10.547Z,59.90
2018-08-10T16:47:39.418Z,59.60
2018-08-10T16:50:12.574Z,58.00
2018-08-10T16:52:42.095Z,57.00
2018-08-10T16:55:13.269Z,58.90
2018-08-10T16:57:42.549Z,57.90
2018-08-10T17:00:13.141Z,57.60
2018-08-10T17:02:41.613Z,57.40
2018-08-10T17:05:10.536Z,57.50
2018-08-10T17:07:39.580Z,57.50
2018-08-10T17:10:08.405Z,57.80
2018-08-10T17:12:38.453Z,57.00
2018-08-10T17:15:09.893Z,56.20
2018-08-10T17:17:39.092Z,57.10
2018-08-10T17:20:07.767Z,56.30
2018-08-10T17:22:36.286Z,58.30
2018-08-10T17:25:06.073Z,57.90
2018-08-10T17:27:34.628Z,58.20
2018-08-10T17:30:06.730Z,59.70
2018-08-10T17:32:36.666Z,61.50
2018-08-10T17:35:07.158Z,61.90
2018-08-10T17:37:37.115Z,61.80
2018-08-10T17:40:07.032Z,61.70
2018-08-10T17:42:35.686Z,62.20
2018-08-10T17:45:06.722Z,63.20
2018-08-10T17:47:35.218Z,64.20
2018-08-10T17:50:05.426Z,64.00
2018-08-10T17:52:34.170Z,64.50
2018-08-10T17:55:02.772Z,66.80
2018-08-10T17:57:31.321Z,67.90
2018-08-10T17:59:59.879Z,66.40
2018-08-10T18:02:28.341Z,67.80
2018-08-10T18:04:56.902Z,66.80
2018-08-10T18:07:25.397Z,66.10
2018-08-10T18:09:54.140Z,68.40
2018-08-10T18:12:22.869Z,69.00
2018-08-10T18:14:51.441Z,68.40
2018-08-10T18:17:20.069Z,67.50
2018-08-10T18:19:48.624Z,68.10
2018-08-10T18:22:17.202Z,70.20
2018-08-10T18:24:45.615Z,70.30
2018-08-10T18:27:14.223Z,70.50
2018-08-10T18:29:42.732Z,72.10
2018-08-10T18:32:11.142Z,72.60
2018-08-10T18:34:39.885Z,71.50
2018-08-10T18:37:08.404Z,72.30
2018-08-10T18:39:36.929Z,73.80
2018-08-10T18:42:05.518Z,71.10
2018-08-10T18:44:34.073Z,72.90
2018-08-10T18:47:02.592Z,73.20
2018-08-10T18:49:31.077Z,73.20
2018-08-10T18:51:59.556Z,72.60
2018-08-10T18:54:28.080Z,73.30
2018-08-10T18:56:56.540Z,73.30
2018-08-10T18:59:25.081Z,73.20
2018-08-10T19:01:53.669Z,73.20
2018-08-10T19:04:22.271Z,73.20
2018-08-10T19:06:50.832Z,75.70
2018-08-10T19:09:19.778Z,75.20
2018-08-10T19:11:48.273Z,75.70
2018-08-10T19:14:16.786Z,74.50
2018-08-10T19:16:45.269Z,76.10
2018-08-10T19:19:13.781Z,77.10
2018-08-10T19:21:42.300Z,79.10
2018-08-10T19:24:10.748Z,79.90
2018-08-10T19:26:39.601Z,81.00
2018-08-10T19:29:08.151Z,82.70
2018-08-10T19:31:36.566Z,84.30
2018-08-10T19:34:05.041Z,82.70
2018-08-10T19:36:33.676Z,85.20
2018-08-10T19:39:02.151Z,85.80
2018-08-10T19:41:30.714Z,88.30
2018-08-10T19:43:59.280Z,87.80
2018-08-10T19:46:27.693Z,86.80
2018-08-10T19:48:56.262Z,86.70
2018-08-10T19:51:24.901Z,87.80
2018-08-10T19:53:53.407Z,86.30
2018-08-10T19:56:22.035Z,87.30
2018-08-10T19:58:50.468Z,87.00
2018-08-10T20:01:19.029Z,87.80
2018-08-10T20:03:47.848Z,87.30
2018-08-10T20:06:16.328Z,88.00
2018-08-10T20:08:44.887Z,90.20
2018-08-10T20:11:13.388Z,90.20
2018-08-10T20:13:41.949Z,90.50
2018-08-10T20:16:10.322Z,90.80
2018-08-10T20:18:38.925Z,91.00
2018-08-10T20:21:07.538Z,91.30
2018-08-10T20:23:35.982Z,91.50
2018-08-10T20:26:04.543Z,91.60
2018-08-10T20:28:33.068Z,92.00
2018-08-10T20:31:01.532Z,92.20
2018-08-10T20:33:29.994Z,91.90
2018-08-10T20:35:58.421Z,92.30
2018-08-10T20:38:27.129Z,92.90
2018-08-10T20:40:55.548Z,92.80
2018-08-10T20:43:24.044Z,92.70
2018-08-10T20:45:52.529Z,92.70
2018-08-10T20:48:20.941Z,93.20
2018-08-10T20:50:49.462Z,93.60
2018-08-10T20:53:17.868Z,94.00
2018-08-10T20:55:46.510Z,94.00
2018-08-10T20:58:14.922Z,94.20
2018-08-10T21:00:44.046Z,94.00
2018-08-10T21:03:12.530Z,94.10
2018-08-10T21:05:40.992Z,94.20
2018-08-10T21:08:09.512Z,95.00
2018-08-10T21:10:38.066Z,95.30
2018-08-10T21:13:06.552Z,95.80
2018-08-10T21:15:35.004Z,96.00
2018-08-10T21:18:03.529Z,96.30
2018-08-10T21:20:32.068Z,96.40
2018-08-10T21:23:00.736Z,96.90
2018-08-10T21:25:29.467Z,97.30
2018-08-10T21:27:58.256Z,97.50
2018-08-10T21:30:26.708Z,98.20
2018-08-10T21:32:55.368Z,98.50
2018-08-10T21:35:24.136Z,98.80
2018-08-10T21:37:52.958Z,99.30
2018-08-10T21:40:22.111Z,99.30
2018-08-10T21:42:50.631Z,99.90
2018-08-10T21:45:19.105Z,99.90
2018-08-10T21:47:47.587Z,99.90
2018-08-10T21:50:16.025Z,99.90
2018-08-10T21:52:45.092Z,99.90
2018-08-10T21:55:13.818Z,99.90
2018-08-10T21:57:42.424Z,99.90
2018-08-10T22:00:58.100Z,99.90
2018-08-10T22:03:26.569Z,99.90
2018-08-10T22:05:55.213Z,99.90
2018-08-10T22:08:24.323Z,99.90
2018-08-10T22:10:52.838Z,99.90
2018-08-10T22:13:26.776Z,99.90
2018-08-10T22:16:00.544Z,99.90
2018-08-10T22:18:34.232Z,99.90
2018-08-10T22:21:02.706Z,99.90
2018-08-10T22:23:31.136Z,99.90
2018-08-10T22:26:00.071Z,99.90
2018-08-10T22:28:28.581Z,99.90
2018-08-10T22:30:57.046Z,99.90
2018-08-10T22:33:25.531Z,99.90
2018-08-10T22:35:54.012Z,99.90
2018-08-10T22:38:22.584Z,99.90
2018-08-10T22:40:51.093Z,99.90
2018-08-10T22:43:19.508Z,99.90
2018-08-10T22:45:47.879Z,99.90
2018-08-10T22:48:16.264Z,99.90
2018-08-10T22:50:44.771Z,99.90
2018-08-10T22:53:13.238Z,99.90
2018-08-10T22:55:41.642Z,99.90
2018-08-10T22:58:10.119Z,99.90
2018-08-10T23:00:38.608Z,99.90
2018-08-10T23:03:07.085Z,99.90
2018-08-10T23:05:35.628Z,99.90
2018-08-10T23:08:04.186Z,99.90
2018-08-10T23:10:32.630Z,99.90
2018-08-10T23:13:01.117Z,99.90
2018-08-10T23:15:29.559Z,99.90
2018-08-10T23:17:58.081Z,99.90
2018-08-10T23:20:26.504Z,99.90
2018-08-10T23:22:54.922Z,99.90
2018-08-10T23:25:23.402Z,99.90
2018-08-10T23:27:51.814Z,99.90
2018-08-10T23:30:20.464Z,99.90
2018-08-10T23:32:48.898Z,99.90
2018-08-10T23:35:18.191Z,99.90
2018-08-10T23:37:46.920Z,99.90
2018-08-10T23:40:16.225Z,99.90
2018-08-10T23:42:48.011Z,99.90
2018-08-10T23:45:16.444Z,99.90
2018-08-10T23:47:45.274Z,99.90
2018-08-10T23:50:14.942Z,99.90
2018-08-10T23:52:43.882Z,99.90
2018-08-10T23:55:12.837Z,99.90
2018-08-10T23:57:41.737Z,99.90
